Ellwood, Georgia
Current Conditions -  °F | °C
As of 1:53 PM on Tuesday 27 Jan 2015 (Local Time) from KAGS Reporting Station
Broken Clouds Broken Clouds  
Wind Chill: 44°   Ceiling: 4900
Heat Index: 49°   Visibility: 10mi
Dew Point: 29°   Wind: 14mph
Humidity: 46%   Direction: 350°N
Pressure: 29.89"   Gusts: 23mph
Location:  33.3028°N, 82.1636°W
Report Text: KAGS 271853Z 35012G20KT 10SM BKN049 09/M02 A2989 RMK AO2 WSHFT 1818 SLP120 T00941017
Loading
Personal Weather Stations






























Interactive Weather Map New forecast layout! Learn more

10-Day Weather Forecast

Advertisements
Track Severe Weather on mobile